Troy, NY (12180)

10:32 AM EDT on July 27, 2017 (GMT -0400)
Sycaway | | Change Station

Elev 406 ft 42.73 °N, 73.66 °W | Updated 3 minutes ago

Rain
Rain
67.2 °F
Feels Like 67.2 °F
N
0.0
Wind Variable Wind from SSW
Gusts 3.0 mph

Today
High -- | Low -- °F
--% Chance of Precip.
Yesterday
High -- | Low -- °F
Precip. -- in
Pressure 29.99 in
Visibility 8.0 miles
Clouds Few 2000 ft
Few 6500 ft
Mostly Cloudy 9000 ft
Overcast 13000 ft
Dew Point 63 °F
Humidity 87%
Rainfall 0.04 in
Snow Depth Not available.
5:41 AM 8:20 PM
Waxing Crescent, 21% visible
METAR KALB 271351Z 18008KT 8SM -RA FEW020 FEW065 BKN090 OVC130 19/16 A2999 RMK AO2 RAB1256E16B36 SLP154 P0001 T01890161
Pressure 29.99 in
Visibility 8.0 miles
Clouds Few 2000 ft
Few 6500 ft
Mostly Cloudy 9000 ft
Overcast 13000 ft
Dew Point 63 °F
Humidity 87%
Rainfall 0.04 in
Snow Depth Not available.
5:41 AM 8:20 PM
Waxing Crescent, 21% visible
METAR KALB 271351Z 18008KT 8SM -RA FEW020 FEW065 BKN090 OVC130 19/16 A2999 RMK AO2 RAB1256E16B36 SLP154 P0001 T01890161

Get Severe Weather Alerts

Thanks for signing up!

Be on the lookout for a verification email in your inbox.

You'll start receiving the daily forecast at 6 AM.

×

10-Day Weather Forecast

Almanac

Astronomy

Jul. 27, 2017 Rise Set
Actual Time
Civil Twilight
Nautical Twilight
Astronomical Twilight
Moon
Length of Visible Light
Length of Day
Tomorrow will be .
, % of the Moon is Illuminated

Today's Extremes

State Highs State Lows

Community

WunderPhotos

Category 6

Welcome to Category 6. This is the collective home for Weather Underground's featured writeups by Dr. Jeff Masters (right), Bob Henson (left), Chris Burt, and other regular contributors.

Nearby

Air Quality

  Air Quality AQ Index Pollutant
Not available.

Snow Depth

Station Depth Elevation

Earthquake Activity

City Distance Mag. Time & Date
Minimum magnitude displayed is 2.5.

Coastal Water Temperatures

Place Temperature

Stations

Nearby Weather Stations

Station Location Temp. Windchill Dew Point Humidity Wind Precip. Elev Updated Type
                   

Watches & Warnings

There are currently no watches in effect.